sensor_id;sensor_type;location;lat;lon;timestamp;temperature;humidity
9915;DHT22;4996;48.746;9.174;2022-11-15T00:01:44;10.30;99.90
9915;DHT22;4996;48.746;9.174;2022-11-15T00:04:10;10.30;99.90
9915;DHT22;4996;48.746;9.174;2022-11-15T00:06:36;10.30;99.90
9915;DHT22;4996;48.746;9.174;2022-11-15T00:09:02;10.30;99.90
9915;DHT22;4996;48.746;9.174;2022-11-15T00:11:27;10.30;99.90
9915;DHT22;4996;48.746;9.174;2022-11-15T00:13:55;10.40;99.90
9915;DHT22;4996;48.746;9.174;2022-11-15T00:16:21;10.40;99.90
9915;DHT22;4996;48.746;9.174;2022-11-15T00:18:46;10.30;99.90
9915;DHT22;4996;48.746;9.174;2022-11-15T00:21:13;10.30;99.90
9915;DHT22;4996;48.746;9.174;2022-11-15T00:23:39;10.40;99.90
9915;DHT22;4996;48.746;9.174;2022-11-15T00:26:05;10.40;99.90
9915;DHT22;4996;48.746;9.174;2022-11-15T00:28:30;10.40;99.90
9915;DHT22;4996;48.746;9.174;2022-11-15T00:31:04;10.50;99.90
9915;DHT22;4996;48.746;9.174;2022-11-15T00:33:30;10.40;99.90
9915;DHT22;4996;48.746;9.174;2022-11-15T00:36:03;10.40;99.90
9915;DHT22;4996;48.746;9.174;2022-11-15T00:38:37;10.40;99.90
9915;DHT22;4996;48.746;9.174;2022-11-15T00:41:04;10.50;99.90
9915;DHT22;4996;48.746;9.174;2022-11-15T00:43:30;10.40;99.90
9915;DHT22;4996;48.746;9.174;2022-11-15T00:45:56;10.50;99.90
9915;DHT22;4996;48.746;9.174;2022-11-15T00:48:22;10.50;99.90
9915;DHT22;4996;48.746;9.174;2022-11-15T00:50:49;10.50;99.90
9915;DHT22;4996;48.746;9.174;2022-11-15T00:53:14;10.60;99.90
9915;DHT22;4996;48.746;9.174;2022-11-15T00:55:40;10.50;99.90
9915;DHT22;4996;48.746;9.174;2022-11-15T00:58:06;10.50;99.90
9915;DHT22;4996;48.746;9.174;2022-11-15T01:00:31;10.50;99.90
9915;DHT22;4996;48.746;9.174;2022-11-15T01:02:57;10.50;99.90
9915;DHT22;4996;48.746;9.174;2022-11-15T01:05:23;10.50;99.90
9915;DHT22;4996;48.746;9.174;2022-11-15T01:07:55;10.50;99.90
9915;DHT22;4996;48.746;9.174;2022-11-15T01:10:22;10.50;99.90
9915;DHT22;4996;48.746;9.174;2022-11-15T01:12:48;10.50;99.90
9915;DHT22;4996;48.746;9.174;2022-11-15T01:15:13;10.50;99.90
9915;DHT22;4996;48.746;9.174;2022-11-15T01:17:39;10.50;99.90
9915;DHT22;4996;48.746;9.174;2022-11-15T01:20:05;10.50;99.90
9915;DHT22;4996;48.746;9.174;2022-11-15T01:22:31;10.50;99.90
9915;DHT22;4996;48.746;9.174;2022-11-15T01:24:56;10.40;99.90
9915;DHT22;4996;48.746;9.174;2022-11-15T01:27:22;10.40;99.90
9915;DHT22;4996;48.746;9.174;2022-11-15T01:29:47;10.40;99.90
9915;DHT22;4996;48.746;9.174;2022-11-15T01:32:13;10.40;99.90
9915;DHT22;4996;48.746;9.174;2022-11-15T01:34:39;10.30;99.90
9915;DHT22;4996;48.746;9.174;2022-11-15T01:37:04;10.30;99.90
9915;DHT22;4996;48.746;9.174;2022-11-15T01:39:30;10.30;99.90
9915;DHT22;4996;48.746;9.174;2022-11-15T01:41:55;10.20;99.90
9915;DHT22;4996;48.746;9.174;2022-11-15T01:46:57;10.10;99.90
9915;DHT22;4996;48.746;9.174;2022-11-15T01:49:24;10.10;99.90
9915;DHT22;4996;48.746;9.174;2022-11-15T01:51:53;10.00;99.90
9915;DHT22;4996;48.746;9.174;2022-11-15T01:54:21;9.90;99.90
9915;DHT22;4996;48.746;9.174;2022-11-15T01:56:52;9.90;99.90
9915;DHT22;4996;48.746;9.174;2022-11-15T01:59:19;9.80;99.90
9915;DHT22;4996;48.746;9.174;2022-11-15T02:01:45;9.80;99.90
9915;DHT22;4996;48.746;9.174;2022-11-15T02:04:20;9.80;99.90
9915;DHT22;4996;48.746;9.174;2022-11-15T02:06:48;9.70;99.90
9915;DHT22;4996;48.746;9.174;2022-11-15T02:09:14;9.70;99.90
9915;DHT22;4996;48.746;9.174;2022-11-15T02:11:40;9.70;99.90
9915;DHT22;4996;48.746;9.174;2022-11-15T02:14:07;9.70;99.90
9915;DHT22;4996;48.746;9.174;2022-11-15T02:16:59;9.70;99.90
9915;DHT22;4996;48.746;9.174;2022-11-15T02:25:03;9.60;99.90
9915;DHT22;4996;48.746;9.174;2022-11-15T02:30:47;9.50;99.90
9915;DHT22;4996;48.746;9.174;2022-11-15T02:36:58;9.50;99.90
9915;DHT22;4996;48.746;9.174;2022-11-15T02:41:57;9.50;99.90
9915;DHT22;4996;48.746;9.174;2022-11-15T02:44:43;9.50;99.90
9915;DHT22;4996;48.746;9.174;2022-11-15T02:47:14;9.50;99.90
9915;DHT22;4996;48.746;9.174;2022-11-15T02:49:50;9.50;99.90
9915;DHT22;4996;48.746;9.174;2022-11-15T02:52:17;9.50;99.90
9915;DHT22;4996;48.746;9.174;2022-11-15T02:54:52;9.50;99.90
9915;DHT22;4996;48.746;9.174;2022-11-15T02:57:23;9.50;99.90
9915;DHT22;4996;48.746;9.174;2022-11-15T03:05:28;9.50;99.90
9915;DHT22;4996;48.746;9.174;2022-11-15T03:08:06;9.60;99.90
9915;DHT22;4996;48.746;9.174;2022-11-15T03:13:30;9.50;99.90
9915;DHT22;4996;48.746;9.174;2022-11-15T03:16:11;9.50;99.90
9915;DHT22;4996;48.746;9.174;2022-11-15T03:18:53;9.50;99.90
9915;DHT22;4996;48.746;9.174;2022-11-15T03:21:22;9.50;99.90
9915;DHT22;4996;48.746;9.174;2022-11-15T03:23:50;9.50;99.90
9915;DHT22;4996;48.746;9.174;2022-11-15T03:26:18;9.50;99.90
9915;DHT22;4996;48.746;9.174;2022-11-15T03:28:52;9.50;99.90
9915;DHT22;4996;48.746;9.174;2022-11-15T03:31:19;9.40;99.90
9915;DHT22;4996;48.746;9.174;2022-11-15T03:34:08;9.50;99.90
9915;DHT22;4996;48.746;9.174;2022-11-15T03:36:35;9.40;99.90
9915;DHT22;4996;48.746;9.174;2022-11-15T03:39:03;9.40;99.90
9915;DHT22;4996;48.746;9.174;2022-11-15T03:41:39;9.50;99.90
9915;DHT22;4996;48.746;9.174;2022-11-15T03:44:17;9.60;99.90
9915;DHT22;4996;48.746;9.174;2022-11-15T03:47:06;9.50;99.90
9915;DHT22;4996;48.746;9.174;2022-11-15T03:49:35;9.50;99.90
9915;DHT22;4996;48.746;9.174;2022-11-15T03:52:03;9.50;99.90
9915;DHT22;4996;48.746;9.174;2022-11-15T03:54:29;9.60;99.90
9915;DHT22;4996;48.746;9.174;2022-11-15T03:56:55;9.60;99.90
9915;DHT22;4996;48.746;9.174;2022-11-15T03:59:20;9.60;99.90
9915;DHT22;4996;48.746;9.174;2022-11-15T04:01:46;9.60;99.90
9915;DHT22;4996;48.746;9.174;2022-11-15T04:04:12;9.60;99.90
9915;DHT22;4996;48.746;9.174;2022-11-15T04:06:37;9.70;99.90
9915;DHT22;4996;48.746;9.174;2022-11-15T04:09:03;9.70;99.90
9915;DHT22;4996;48.746;9.174;2022-11-15T04:11:28;9.70;99.90
9915;DHT22;4996;48.746;9.174;2022-11-15T04:13:54;9.70;99.90
9915;DHT22;4996;48.746;9.174;2022-11-15T04:16:19;9.70;99.90
9915;DHT22;4996;48.746;9.174;2022-11-15T04:18:45;9.60;99.90
9915;DHT22;4996;48.746;9.174;2022-11-15T04:21:30;9.60;99.90
9915;DHT22;4996;48.746;9.174;2022-11-15T04:24:14;9.60;99.90
9915;DHT22;4996;48.746;9.174;2022-11-15T04:26:40;9.60;99.90
9915;DHT22;4996;48.746;9.174;2022-11-15T04:29:05;9.70;99.90
9915;DHT22;4996;48.746;9.174;2022-11-15T04:31:49;9.70;99.90
9915;DHT22;4996;48.746;9.174;2022-11-15T04:34:15;9.60;99.90
9915;DHT22;4996;48.746;9.174;2022-11-15T04:36:40;9.60;99.90
9915;DHT22;4996;48.746;9.174;2022-11-15T04:39:24;9.60;99.90
9915;DHT22;4996;48.746;9.174;2022-11-15T04:41:50;9.60;99.90
9915;DHT22;4996;48.746;9.174;2022-11-15T04:44:15;9.60;99.90
9915;DHT22;4996;48.746;9.174;2022-11-15T04:46:41;9.60;99.90
9915;DHT22;4996;48.746;9.174;2022-11-15T04:49:07;9.60;99.90
9915;DHT22;4996;48.746;9.174;2022-11-15T04:51:32;9.60;99.90
9915;DHT22;4996;48.746;9.174;2022-11-15T04:53:58;9.60;99.90
9915;DHT22;4996;48.746;9.174;2022-11-15T04:56:23;9.60;99.90
9915;DHT22;4996;48.746;9.174;2022-11-15T04:58:49;9.50;99.90
9915;DHT22;4996;48.746;9.174;2022-11-15T05:01:15;9.50;99.90
9915;DHT22;4996;48.746;9.174;2022-11-15T05:03:41;9.50;99.90
9915;DHT22;4996;48.746;9.174;2022-11-15T05:06:30;9.50;99.90
9915;DHT22;4996;48.746;9.174;2022-11-15T05:08:56;9.50;99.90
9915;DHT22;4996;48.746;9.174;2022-11-15T05:11:22;9.50;99.90
9915;DHT22;4996;48.746;9.174;2022-11-15T05:13:48;9.50;99.90
9915;DHT22;4996;48.746;9.174;2022-11-15T05:16:14;9.50;99.90
9915;DHT22;4996;48.746;9.174;2022-11-15T05:18:39;9.50;99.90
9915;DHT22;4996;48.746;9.174;2022-11-15T05:21:07;9.50;99.90
9915;DHT22;4996;48.746;9.174;2022-11-15T05:23:33;9.60;99.90
9915;DHT22;4996;48.746;9.174;2022-11-15T05:25:59;9.60;99.90
9915;DHT22;4996;48.746;9.174;2022-11-15T05:28:25;9.60;99.90
9915;DHT22;4996;48.746;9.174;2022-11-15T05:30:50;9.60;99.90
9915;DHT22;4996;48.746;9.174;2022-11-15T05:33:16;9.60;99.90
9915;DHT22;4996;48.746;9.174;2022-11-15T05:35:46;9.50;99.90
9915;DHT22;4996;48.746;9.174;2022-11-15T05:38:14;9.50;99.90
9915;DHT22;4996;48.746;9.174;2022-11-15T05:40:39;9.50;99.90
9915;DHT22;4996;48.746;9.174;2022-11-15T05:43:05;9.50;99.90
9915;DHT22;4996;48.746;9.174;2022-11-15T05:45:32;9.50;99.90
9915;DHT22;4996;48.746;9.174;2022-11-15T05:48:00;9.60;99.90
9915;DHT22;4996;48.746;9.174;2022-11-15T05:50:30;9.60;99.90
9915;DHT22;4996;48.746;9.174;2022-11-15T05:52:56;9.60;99.90
9915;DHT22;4996;48.746;9.174;2022-11-15T05:55:22;9.60;99.90
9915;DHT22;4996;48.746;9.174;2022-11-15T05:57:48;9.70;99.90
9915;DHT22;4996;48.746;9.174;2022-11-15T06:00:13;9.70;99.90
9915;DHT22;4996;48.746;9.174;2022-11-15T06:02:39;9.80;99.90
9915;DHT22;4996;48.746;9.174;2022-11-15T06:05:05;9.70;99.90
9915;DHT22;4996;48.746;9.174;2022-11-15T06:07:30;9.70;99.90
9915;DHT22;4996;48.746;9.174;2022-11-15T06:09:56;9.70;99.90
9915;DHT22;4996;48.746;9.174;2022-11-15T06:12:21;9.70;99.90
9915;DHT22;4996;48.746;9.174;2022-11-15T06:14:47;9.60;99.90
9915;DHT22;4996;48.746;9.174;2022-11-15T06:17:13;9.60;99.90
9915;DHT22;4996;48.746;9.174;2022-11-15T06:19:38;9.60;99.90
9915;DHT22;4996;48.746;9.174;2022-11-15T06:22:04;9.60;99.90
9915;DHT22;4996;48.746;9.174;2022-11-15T06:24:29;9.50;99.90
9915;DHT22;4996;48.746;9.174;2022-11-15T06:26:55;9.50;99.90
9915;DHT22;4996;48.746;9.174;2022-11-15T06:29:20;9.50;99.90
9915;DHT22;4996;48.746;9.174;2022-11-15T06:31:46;9.40;99.90
9915;DHT22;4996;48.746;9.174;2022-11-15T06:34:11;9.50;99.90
9915;DHT22;4996;48.746;9.174;2022-11-15T06:36:37;9.50;99.90
9915;DHT22;4996;48.746;9.174;2022-11-15T06:39:04;9.50;99.90
9915;DHT22;4996;48.746;9.174;2022-11-15T06:41:30;9.40;99.90
9915;DHT22;4996;48.746;9.174;2022-11-15T06:43:56;9.40;99.90
9915;DHT22;4996;48.746;9.174;2022-11-15T06:46:22;9.40;99.90
9915;DHT22;4996;48.746;9.174;2022-11-15T06:48:51;9.40;99.90
9915;DHT22;4996;48.746;9.174;2022-11-15T06:51:17;9.30;99.90
9915;DHT22;4996;48.746;9.174;2022-11-15T06:53:43;9.40;99.90
9915;DHT22;4996;48.746;9.174;2022-11-15T06:56:09;9.40;99.90
9915;DHT22;4996;48.746;9.174;2022-11-15T06:58:35;9.30;99.90
9915;DHT22;4996;48.746;9.174;2022-11-15T07:01:07;9.30;99.90
9915;DHT22;4996;48.746;9.174;2022-11-15T07:03:35;9.40;99.90
9915;DHT22;4996;48.746;9.174;2022-11-15T07:06:01;9.30;99.90
9915;DHT22;4996;48.746;9.174;2022-11-15T07:08:28;9.40;99.90
9915;DHT22;4996;48.746;9.174;2022-11-15T07:10:54;9.40;99.90
9915;DHT22;4996;48.746;9.174;2022-11-15T07:13:23;9.50;99.90
9915;DHT22;4996;48.746;9.174;2022-11-15T07:15:49;9.60;99.90
9915;DHT22;4996;48.746;9.174;2022-11-15T07:18:14;9.50;99.90
9915;DHT22;4996;48.746;9.174;2022-11-15T07:20:40;9.60;99.90
9915;DHT22;4996;48.746;9.174;2022-11-15T07:23:05;9.70;99.90
9915;DHT22;4996;48.746;9.174;2022-11-15T07:25:31;9.80;99.90
9915;DHT22;4996;48.746;9.174;2022-11-15T07:27:58;9.80;99.90
9915;DHT22;4996;48.746;9.174;2022-11-15T07:30:25;9.90;99.90
9915;DHT22;4996;48.746;9.174;2022-11-15T07:32:58;9.90;99.90
9915;DHT22;4996;48.746;9.174;2022-11-15T07:35:25;10.00;99.90
9915;DHT22;4996;48.746;9.174;2022-11-15T07:37:58;10.10;99.90
9915;DHT22;4996;48.746;9.174;2022-11-15T07:40:25;10.20;99.90
9915;DHT22;4996;48.746;9.174;2022-11-15T07:42:51;10.30;99.90
9915;DHT22;4996;48.746;9.174;2022-11-15T07:45:24;10.40;99.90
9915;DHT22;4996;48.746;9.174;2022-11-15T07:47:52;10.50;99.90
9915;DHT22;4996;48.746;9.174;2022-11-15T07:50:17;10.70;99.90
9915;DHT22;4996;48.746;9.174;2022-11-15T07:52:43;10.90;99.90
9915;DHT22;4996;48.746;9.174;2022-11-15T07:55:09;11.10;99.90
9915;DHT22;4996;48.746;9.174;2022-11-15T07:57:35;11.10;99.90
9915;DHT22;4996;48.746;9.174;2022-11-15T08:00:01;11.20;99.90
9915;DHT22;4996;48.746;9.174;2022-11-15T08:02:26;11.40;99.90
9915;DHT22;4996;48.746;9.174;2022-11-15T08:04:52;11.50;99.90
9915;DHT22;4996;48.746;9.174;2022-11-15T08:07:17;11.70;99.90
9915;DHT22;4996;48.746;9.174;2022-11-15T08:09:43;11.80;99.90
9915;DHT22;4996;48.746;9.174;2022-11-15T08:12:08;12.00;99.90
9915;DHT22;4996;48.746;9.174;2022-11-15T08:14:35;12.10;99.90
9915;DHT22;4996;48.746;9.174;2022-11-15T08:17:01;12.20;99.90
9915;DHT22;4996;48.746;9.174;2022-11-15T08:19:26;12.20;99.90
9915;DHT22;4996;48.746;9.174;2022-11-15T08:21:52;12.30;99.90
9915;DHT22;4996;48.746;9.174;2022-11-15T08:24:17;12.40;99.90
9915;DHT22;4996;48.746;9.174;2022-11-15T08:26:43;12.40;99.90
9915;DHT22;4996;48.746;9.174;2022-11-15T08:29:08;12.40;99.90
9915;DHT22;4996;48.746;9.174;2022-11-15T08:31:35;12.40;99.90
9915;DHT22;4996;48.746;9.174;2022-11-15T08:34:02;12.50;99.90
9915;DHT22;4996;48.746;9.174;2022-11-15T08:36:28;12.60;99.90
9915;DHT22;4996;48.746;9.174;2022-11-15T08:38:54;12.80;99.90
9915;DHT22;4996;48.746;9.174;2022-11-15T08:41:31;12.80;99.90
9915;DHT22;4996;48.746;9.174;2022-11-15T08:43:57;12.80;99.90
9915;DHT22;4996;48.746;9.174;2022-11-15T08:46:23;13.00;99.90
9915;DHT22;4996;48.746;9.174;2022-11-15T08:48:48;12.90;99.90
9915;DHT22;4996;48.746;9.174;2022-11-15T08:51:14;13.30;99.90
9915;DHT22;4996;48.746;9.174;2022-11-15T08:53:40;13.40;99.90
9915;DHT22;4996;48.746;9.174;2022-11-15T08:56:11;13.50;99.90
9915;DHT22;4996;48.746;9.174;2022-11-15T08:58:37;13.60;99.90
9915;DHT22;4996;48.746;9.174;2022-11-15T09:01:03;13.70;99.90
9915;DHT22;4996;48.746;9.174;2022-11-15T09:03:29;14.00;99.90
9915;DHT22;4996;48.746;9.174;2022-11-15T09:05:56;14.30;99.90
9915;DHT22;4996;48.746;9.174;2022-11-15T09:08:22;14.40;99.90
9915;DHT22;4996;48.746;9.174;2022-11-15T09:10:47;14.60;99.90
9915;DHT22;4996;48.746;9.174;2022-11-15T09:13:13;14.90;99.90
9915;DHT22;4996;48.746;9.174;2022-11-15T09:15:39;15.10;99.90
9915;DHT22;4996;48.746;9.174;2022-11-15T09:18:04;15.00;99.90
9915;DHT22;4996;48.746;9.174;2022-11-15T09:20:30;15.00;99.90
9915;DHT22;4996;48.746;9.174;2022-11-15T09:22:59;15.10;99.90
9915;DHT22;4996;48.746;9.174;2022-11-15T09:25:25;15.10;99.90
9915;DHT22;4996;48.746;9.174;2022-11-15T09:27:50;14.90;99.90
9915;DHT22;4996;48.746;9.174;2022-11-15T09:30:16;14.90;99.90
9915;DHT22;4996;48.746;9.174;2022-11-15T09:32:41;14.80;99.90
9915;DHT22;4996;48.746;9.174;2022-11-15T09:35:07;14.90;99.90
9915;DHT22;4996;48.746;9.174;2022-11-15T09:37:33;15.10;99.90
9915;DHT22;4996;48.746;9.174;2022-11-15T09:39:58;15.40;99.90
9915;DHT22;4996;48.746;9.174;2022-11-15T09:42:51;15.50;99.90
9915;DHT22;4996;48.746;9.174;2022-11-15T09:45:27;15.80;99.90
9915;DHT22;4996;48.746;9.174;2022-11-15T09:50:50;15.70;99.90
9915;DHT22;4996;48.746;9.174;2022-11-15T09:53:26;15.90;99.90
9915;DHT22;4996;48.746;9.174;2022-11-15T09:56:20;16.10;99.90
9915;DHT22;4996;48.746;9.174;2022-11-15T10:01:34;16.50;99.90
9915;DHT22;4996;48.746;9.174;2022-11-15T10:04:01;16.60;99.90
9915;DHT22;4996;48.746;9.174;2022-11-15T10:06:27;16.40;99.90
9915;DHT22;4996;48.746;9.174;2022-11-15T10:08:55;16.40;99.90
9915;DHT22;4996;48.746;9.174;2022-11-15T10:11:32;16.40;99.90
9915;DHT22;4996;48.746;9.174;2022-11-15T10:14:02;16.50;99.90
9915;DHT22;4996;48.746;9.174;2022-11-15T10:17:09;16.60;99.90
9915;DHT22;4996;48.746;9.174;2022-11-15T10:27:34;16.50;99.90
9915;DHT22;4996;48.746;9.174;2022-11-15T10:30:00;16.40;99.90
9915;DHT22;4996;48.746;9.174;2022-11-15T10:32:26;16.40;99.90
9915;DHT22;4996;48.746;9.174;2022-11-15T10:34:52;16.20;99.90
9915;DHT22;4996;48.746;9.174;2022-11-15T10:37:29;16.20;99.90
9915;DHT22;4996;48.746;9.174;2022-11-15T10:40:27;16.20;99.90
9915;DHT22;4996;48.746;9.174;2022-11-15T10:43:13;16.20;99.90
9915;DHT22;4996;48.746;9.174;2022-11-15T10:45:39;16.20;99.90
9915;DHT22;4996;48.746;9.174;2022-11-15T10:50:37;16.20;99.90
9915;DHT22;4996;48.746;9.174;2022-11-15T10:53:02;16.20;99.90
9915;DHT22;4996;48.746;9.174;2022-11-15T10:55:31;16.10;99.90
9915;DHT22;4996;48.746;9.174;2022-11-15T10:58:21;16.20;99.90
9915;DHT22;4996;48.746;9.174;2022-11-15T11:00:48;16.20;99.90
9915;DHT22;4996;48.746;9.174;2022-11-15T11:03:29;16.10;99.90
9915;DHT22;4996;48.746;9.174;2022-11-15T11:06:16;16.00;99.90
9915;DHT22;4996;48.746;9.174;2022-11-15T11:09:00;15.90;99.90
9915;DHT22;4996;48.746;9.174;2022-11-15T11:11:45;15.90;99.90
9915;DHT22;4996;48.746;9.174;2022-11-15T11:14:33;15.80;99.90
9915;DHT22;4996;48.746;9.174;2022-11-15T11:19:49;15.50;99.90
9915;DHT22;4996;48.746;9.174;2022-11-15T11:23:00;15.50;99.90
9915;DHT22;4996;48.746;9.174;2022-11-15T11:34:17;15.60;99.90
9915;DHT22;4996;48.746;9.174;2022-11-15T11:37:03;15.60;99.90
9915;DHT22;4996;48.746;9.174;2022-11-15T11:39:52;15.60;99.90
9915;DHT22;4996;48.746;9.174;2022-11-15T11:42:52;15.70;99.90
9915;DHT22;4996;48.746;9.174;2022-11-15T11:45:58;15.70;99.90
9915;DHT22;4996;48.746;9.174;2022-11-15T11:51:05;15.80;99.90
9915;DHT22;4996;48.746;9.174;2022-11-15T11:54:12;15.90;99.90
9915;DHT22;4996;48.746;9.174;2022-11-15T11:56:41;16.00;99.90
9915;DHT22;4996;48.746;9.174;2022-11-15T12:01:57;16.10;99.90
9915;DHT22;4996;48.746;9.174;2022-11-15T12:04:32;16.00;99.90
9915;DHT22;4996;48.746;9.174;2022-11-15T12:07:17;16.00;99.90
9915;DHT22;4996;48.746;9.174;2022-11-15T12:10:33;16.10;99.90
9915;DHT22;4996;48.746;9.174;2022-11-15T12:13:07;16.10;99.90
9915;DHT22;4996;48.746;9.174;2022-11-15T12:15:45;16.20;99.90
9915;DHT22;4996;48.746;9.174;2022-11-15T12:18:14;16.20;99.90
9915;DHT22;4996;48.746;9.174;2022-11-15T12:20:48;16.30;99.90
9915;DHT22;4996;48.746;9.174;2022-11-15T12:23:23;16.00;99.90
9915;DHT22;4996;48.746;9.174;2022-11-15T12:25:57;16.00;99.90
9915;DHT22;4996;48.746;9.174;2022-11-15T12:28:34;15.90;99.90
9915;DHT22;4996;48.746;9.174;2022-11-15T12:33:41;16.00;99.90
9915;DHT22;4996;48.746;9.174;2022-11-15T12:38:56;15.70;99.90
9915;DHT22;4996;48.746;9.174;2022-11-15T12:41:24;15.80;99.90
9915;DHT22;4996;48.746;9.174;2022-11-15T12:43:50;15.80;99.90
9915;DHT22;4996;48.746;9.174;2022-11-15T12:46:20;15.70;99.90
9915;DHT22;4996;48.746;9.174;2022-11-15T12:48:51;15.70;99.90
9915;DHT22;4996;48.746;9.174;2022-11-15T12:51:20;15.70;99.90
9915;DHT22;4996;48.746;9.174;2022-11-15T12:53:45;15.70;99.90
9915;DHT22;4996;48.746;9.174;2022-11-15T12:58:59;15.60;99.90
9915;DHT22;4996;48.746;9.174;2022-11-15T13:07:04;15.20;99.90
9915;DHT22;4996;48.746;9.174;2022-11-15T13:14:56;15.30;99.90
9915;DHT22;4996;48.746;9.174;2022-11-15T13:17:34;15.30;99.90
9915;DHT22;4996;48.746;9.174;2022-11-15T13:30:51;15.20;99.90
9915;DHT22;4996;48.746;9.174;2022-11-15T13:35:46;15.10;99.90
9915;DHT22;4996;48.746;9.174;2022-11-15T13:40:54;15.10;99.90
9915;DHT22;4996;48.746;9.174;2022-11-15T13:46:27;15.00;99.90
9915;DHT22;4996;48.746;9.174;2022-11-15T13:49:11;15.00;99.90
9915;DHT22;4996;48.746;9.174;2022-11-15T13:56:35;15.00;99.90
9915;DHT22;4996;48.746;9.174;2022-11-15T13:59:17;14.90;99.90
9915;DHT22;4996;48.746;9.174;2022-11-15T14:01:46;14.80;99.90
9915;DHT22;4996;48.746;9.174;2022-11-15T14:04:13;14.70;99.90
9915;DHT22;4996;48.746;9.174;2022-11-15T14:06:49;14.70;99.90
9915;DHT22;4996;48.746;9.174;2022-11-15T14:09:31;14.70;99.90
9915;DHT22;4996;48.746;9.174;2022-11-15T14:11:58;14.50;99.90
9915;DHT22;4996;48.746;9.174;2022-11-15T14:14:29;14.50;99.90
9915;DHT22;4996;48.746;9.174;2022-11-15T14:16:57;14.30;99.90
9915;DHT22;4996;48.746;9.174;2022-11-15T14:24:40;14.30;99.90
9915;DHT22;4996;48.746;9.174;2022-11-15T14:27:22;14.40;99.90
9915;DHT22;4996;48.746;9.174;2022-11-15T14:29:49;14.20;99.90
9915;DHT22;4996;48.746;9.174;2022-11-15T14:32:20;14.10;99.90
9915;DHT22;4996;48.746;9.174;2022-11-15T14:34:47;14.10;99.90
9915;DHT22;4996;48.746;9.174;2022-11-15T14:37:20;14.10;99.90
9915;DHT22;4996;48.746;9.174;2022-11-15T14:39:46;14.10;99.90
9915;DHT22;4996;48.746;9.174;2022-11-15T14:42:11;14.10;99.90
9915;DHT22;4996;48.746;9.174;2022-11-15T14:44:37;14.10;99.90
9915;DHT22;4996;48.746;9.174;2022-11-15T14:47:02;14.00;99.90
9915;DHT22;4996;48.746;9.174;2022-11-15T14:49:28;14.10;99.90
9915;DHT22;4996;48.746;9.174;2022-11-15T14:51:53;14.10;99.90
9915;DHT22;4996;48.746;9.174;2022-11-15T14:54:19;14.10;99.90
9915;DHT22;4996;48.746;9.174;2022-11-15T14:56:45;14.10;99.90
9915;DHT22;4996;48.746;9.174;2022-11-15T14:59:10;14.10;99.90
9915;DHT22;4996;48.746;9.174;2022-11-15T15:01:36;14.20;99.90
9915;DHT22;4996;48.746;9.174;2022-11-15T15:04:01;14.00;99.90
9915;DHT22;4996;48.746;9.174;2022-11-15T15:06:27;13.90;99.90
9915;DHT22;4996;48.746;9.174;2022-11-15T15:08:52;13.90;99.90
9915;DHT22;4996;48.746;9.174;2022-11-15T15:11:26;13.90;99.90
9915;DHT22;4996;48.746;9.174;2022-11-15T15:13:53;13.80;99.90
9915;DHT22;4996;48.746;9.174;2022-11-15T15:16:21;13.80;99.90
9915;DHT22;4996;48.746;9.174;2022-11-15T15:18:47;13.80;99.90
9915;DHT22;4996;48.746;9.174;2022-11-15T15:21:24;13.70;99.90
9915;DHT22;4996;48.746;9.174;2022-11-15T15:23:51;13.70;99.90
9915;DHT22;4996;48.746;9.174;2022-11-15T15:26:17;13.60;99.90
9915;DHT22;4996;48.746;9.174;2022-11-15T15:28:43;13.60;99.90
9915;DHT22;4996;48.746;9.174;2022-11-15T15:31:09;13.40;99.90
9915;DHT22;4996;48.746;9.174;2022-11-15T15:33:35;13.30;99.90
9915;DHT22;4996;48.746;9.174;2022-11-15T15:36:01;13.30;99.90
9915;DHT22;4996;48.746;9.174;2022-11-15T15:38:26;13.20;99.90
9915;DHT22;4996;48.746;9.174;2022-11-15T15:40:52;13.10;99.90
9915;DHT22;4996;48.746;9.174;2022-11-15T15:43:17;13.20;99.90
9915;DHT22;4996;48.746;9.174;2022-11-15T15:45:43;13.30;99.90
9915;DHT22;4996;48.746;9.174;2022-11-15T15:48:14;13.30;99.90
9915;DHT22;4996;48.746;9.174;2022-11-15T15:50:40;13.30;99.90
9915;DHT22;4996;48.746;9.174;2022-11-15T15:53:08;13.30;99.90
9915;DHT22;4996;48.746;9.174;2022-11-15T15:55:36;13.20;99.90
9915;DHT22;4996;48.746;9.174;2022-11-15T15:58:03;13.40;99.90
9915;DHT22;4996;48.746;9.174;2022-11-15T16:00:29;13.40;99.90
9915;DHT22;4996;48.746;9.174;2022-11-15T16:02:54;13.40;99.90
9915;DHT22;4996;48.746;9.174;2022-11-15T16:05:21;13.30;99.90
9915;DHT22;4996;48.746;9.174;2022-11-15T16:07:47;13.30;99.90
9915;DHT22;4996;48.746;9.174;2022-11-15T16:10:26;13.30;99.90
9915;DHT22;4996;48.746;9.174;2022-11-15T16:12:52;13.30;99.90
9915;DHT22;4996;48.746;9.174;2022-11-15T16:15:20;13.30;99.90
9915;DHT22;4996;48.746;9.174;2022-11-15T16:17:54;13.30;99.90
9915;DHT22;4996;48.746;9.174;2022-11-15T16:20:41;13.20;99.90
9915;DHT22;4996;48.746;9.174;2022-11-15T16:23:09;13.20;99.90
9915;DHT22;4996;48.746;9.174;2022-11-15T16:28:03;13.10;99.90
9915;DHT22;4996;48.746;9.174;2022-11-15T16:30:29;13.20;99.90
9915;DHT22;4996;48.746;9.174;2022-11-15T16:32:55;13.20;99.90
9915;DHT22;4996;48.746;9.174;2022-11-15T16:35:20;13.20;99.90
9915;DHT22;4996;48.746;9.174;2022-11-15T16:37:46;13.10;99.90
9915;DHT22;4996;48.746;9.174;2022-11-15T16:40:26;13.00;99.90
9915;DHT22;4996;48.746;9.174;2022-11-15T16:42:52;13.00;99.90
9915;DHT22;4996;48.746;9.174;2022-11-15T16:45:17;13.00;99.90
9915;DHT22;4996;48.746;9.174;2022-11-15T16:47:43;13.10;99.90
9915;DHT22;4996;48.746;9.174;2022-11-15T16:50:21;13.10;99.90
9915;DHT22;4996;48.746;9.174;2022-11-15T16:52:56;13.00;99.90
9915;DHT22;4996;48.746;9.174;2022-11-15T16:55:24;13.10;99.90
9915;DHT22;4996;48.746;9.174;2022-11-15T16:57:50;13.20;99.90
9915;DHT22;4996;48.746;9.174;2022-11-15T17:00:17;13.20;99.90
9915;DHT22;4996;48.746;9.174;2022-11-15T17:02:44;13.30;99.90
9915;DHT22;4996;48.746;9.174;2022-11-15T17:05:10;13.40;99.90
9915;DHT22;4996;48.746;9.174;2022-11-15T17:07:37;13.30;99.90
9915;DHT22;4996;48.746;9.174;2022-11-15T17:10:02;13.30;99.90
9915;DHT22;4996;48.746;9.174;2022-11-15T17:12:28;13.20;99.90
9915;DHT22;4996;48.746;9.174;2022-11-15T17:14:55;13.20;99.90
9915;DHT22;4996;48.746;9.174;2022-11-15T17:17:21;13.10;99.90
9915;DHT22;4996;48.746;9.174;2022-11-15T17:19:46;13.10;99.90
9915;DHT22;4996;48.746;9.174;2022-11-15T17:22:12;13.10;99.90
9915;DHT22;4996;48.746;9.174;2022-11-15T17:24:37;13.10;99.90
9915;DHT22;4996;48.746;9.174;2022-11-15T17:27:03;13.10;99.90
9915;DHT22;4996;48.746;9.174;2022-11-15T17:29:29;13.10;99.90
9915;DHT22;4996;48.746;9.174;2022-11-15T17:31:55;13.00;99.90
9915;DHT22;4996;48.746;9.174;2022-11-15T17:34:20;12.90;99.90
9915;DHT22;4996;48.746;9.174;2022-11-15T17:36:47;12.90;99.90
9915;DHT22;4996;48.746;9.174;2022-11-15T17:39:12;12.80;99.90
9915;DHT22;4996;48.746;9.174;2022-11-15T17:41:38;12.70;99.90
9915;DHT22;4996;48.746;9.174;2022-11-15T17:44:03;12.70;99.90
9915;DHT22;4996;48.746;9.174;2022-11-15T17:46:29;13.10;99.90
9915;DHT22;4996;48.746;9.174;2022-11-15T17:48:56;12.80;99.90
9915;DHT22;4996;48.746;9.174;2022-11-15T17:51:21;12.80;99.90
9915;DHT22;4996;48.746;9.174;2022-11-15T17:53:48;12.90;99.90
9915;DHT22;4996;48.746;9.174;2022-11-15T17:56:19;12.80;99.90
9915;DHT22;4996;48.746;9.174;2022-11-15T17:58:50;12.80;99.90
9915;DHT22;4996;48.746;9.174;2022-11-15T18:01:22;12.90;99.90
9915;DHT22;4996;48.746;9.174;2022-11-15T18:03:48;12.80;99.90
9915;DHT22;4996;48.746;9.174;2022-11-15T18:06:15;12.80;99.90
9915;DHT22;4996;48.746;9.174;2022-11-15T18:08:42;12.80;99.90
9915;DHT22;4996;48.746;9.174;2022-11-15T18:11:14;12.80;99.90